Terminal Aerodrome Forecast
Issued by NWS

Home | Current Version | Previous Version | Text Only | Print | Product List | Glossary On
Versions: 1 2 3 4 5 6 7 8 9 10 11 12 13 14 15 16 17 18
000
FTUS44 KLZK 272300
TAFHRO
TAF
KHRO 272337Z 2800/2824 31004KT P6SM OVC110
     FM281000 14005KT P6SM OVC050 PROB30 2810/2816 5SM -SHRA BKN025
     FM281600 14009KT 5SM -RA BR OVC040
     FM282100 13008KT P6SM OVC060=

USA.gov is the U.S. government's official web portal to all federal, state and local government web resources and services.